createdAt,value
2022-12-19T00:01:36.985Z,96.47
2022-12-19T00:04:10.093Z,96.34
2022-12-19T00:06:43.570Z,96.48
2022-12-19T00:09:12.291Z,97.21
2022-12-19T00:11:40.088Z,96.85
2022-12-19T00:14:07.337Z,97.05
2022-12-19T00:16:33.851Z,96.66
2022-12-19T00:19:01.608Z,96.95
2022-12-19T00:21:30.892Z,97.02
2022-12-19T00:24:00.925Z,97.12
2022-12-19T00:26:32.619Z,96.99
2022-12-19T00:29:02.271Z,97.05
2022-12-19T00:31:31.062Z,97.71
2022-12-19T00:33:58.024Z,98.05
2022-12-19T00:36:26.981Z,97.19
2022-12-19T00:38:56.007Z,97.42
2022-12-19T00:41:28.556Z,98.24
2022-12-19T00:43:57.337Z,97.63
2022-12-19T00:46:24.688Z,98.20
2022-12-19T00:48:51.215Z,98.10
2022-12-19T00:51:20.163Z,97.91
2022-12-19T00:53:48.367Z,98.40
2022-12-19T00:56:20.987Z,97.86
2022-12-19T00:58:47.670Z,97.89
2022-12-19T01:01:21.637Z,98.11
2022-12-19T01:04:26.165Z,98.38
2022-12-19T01:06:35.246Z,97.75
2022-12-19T01:09:02.240Z,98.06
2022-12-19T01:11:47.307Z,98.69
2022-12-19T01:14:20.750Z,97.97
2022-12-19T01:16:50.059Z,97.89
2022-12-19T01:19:18.607Z,98.63
2022-12-19T01:21:45.449Z,98.80
2022-12-19T01:24:12.445Z,98.13
2022-12-19T01:26:40.621Z,98.30
2022-12-19T01:29:07.148Z,98.31
2022-12-19T01:31:33.900Z,98.44
2022-12-19T01:34:03.093Z,98.61
2022-12-19T01:36:29.707Z,98.47
2022-12-19T01:38:57.702Z,98.92
2022-12-19T01:41:26.326Z,98.30
2022-12-19T01:44:04.765Z,99.08
2022-12-19T01:46:50.210Z,98.65
2022-12-19T01:49:36.089Z,99.10
2022-12-19T01:52:06.444Z,98.45
2022-12-19T01:54:40.270Z,99.20
2022-12-19T01:57:10.834Z,99.11
2022-12-19T01:59:43.783Z,98.93
2022-12-19T02:02:18.878Z,99.36
2022-12-19T02:04:45.563Z,99.12
2022-12-19T02:07:15.811Z,98.91
2022-12-19T02:09:44.969Z,99.06
2022-12-19T02:12:13.301Z,98.83
2022-12-19T02:14:40.692Z,99.07
2022-12-19T02:17:29.059Z,99.07
2022-12-19T02:20:19.738Z,99.22
2022-12-19T02:23:07.507Z,99.54
2022-12-19T02:25:48.335Z,98.93
2022-12-19T02:28:35.339Z,99.45
2022-12-19T02:31:18.032Z,99.15
2022-12-19T02:34:29.806Z,99.53
2022-12-19T02:37:04.056Z,99.26
2022-12-19T02:39:52.174Z,98.81
2022-12-19T02:42:30.572Z,99.58
2022-12-19T02:45:01.187Z,98.95
2022-12-19T02:47:31.517Z,99.01
2022-12-19T02:49:59.219Z,99.43
2022-12-19T02:52:25.781Z,99.69
2022-12-19T02:54:57.455Z,98.95
2022-12-19T02:57:41.276Z,99.02
2022-12-19T03:00:10.541Z,99.73
2022-12-19T03:03:00.495Z,99.36
2022-12-19T03:05:34.194Z,99.67
2022-12-19T03:08:18.946Z,99.53
2022-12-19T03:10:54.115Z,99.56
2022-12-19T03:13:37.996Z,99.69
2022-12-19T03:16:08.543Z,99.02
2022-12-19T03:18:35.584Z,99.43
2022-12-19T03:21:05.037Z,99.14
2022-12-19T03:23:31.688Z,99.98
2022-12-19T03:26:04.082Z,99.85
2022-12-19T03:28:39.357Z,99.24
2022-12-19T03:31:06.907Z,99.15
2022-12-19T03:33:35.086Z,99.82
2022-12-19T03:36:06.198Z,99.28
2022-12-19T03:38:35.042Z,99.51
2022-12-19T03:41:03.522Z,99.08
2022-12-19T03:43:31.845Z,99.48
2022-12-19T03:46:08.936Z,99.42
2022-12-19T03:48:43.156Z,99.35
2022-12-19T03:51:16.889Z,99.55
2022-12-19T03:54:03.072Z,99.22
2022-12-19T03:57:00.336Z,99.41
2022-12-19T03:59:41.725Z,99.74
2022-12-19T04:02:09.841Z,99.45
2022-12-19T04:04:43.741Z,99.84
2022-12-19T04:07:13.274Z,99.47
2022-12-19T04:09:42.474Z,99.41
2022-12-19T04:12:16.639Z,99.37
2022-12-19T04:14:43.647Z,99.44
2022-12-19T04:17:19.046Z,99.77
2022-12-19T04:19:59.836Z,99.82
2022-12-19T04:22:32.401Z,99.42
2022-12-19T04:25:01.318Z,99.48
2022-12-19T04:27:34.132Z,99.41
2022-12-19T04:30:02.079Z,99.52
2022-12-19T04:32:32.683Z,99.51
2022-12-19T04:35:00.318Z,99.38
2022-12-19T04:37:26.927Z,99.79
2022-12-19T04:39:53.396Z,99.86
2022-12-19T04:42:19.834Z,99.40
2022-12-19T04:44:46.315Z,99.67
2022-12-19T04:47:13.406Z,99.88
2022-12-19T04:49:39.887Z,99.45
2022-12-19T04:52:06.333Z,99.98
2022-12-19T04:54:34.662Z,99.41
2022-12-19T04:57:01.195Z,100.00
2022-12-19T04:59:27.744Z,99.55
2022-12-19T05:01:54.483Z,99.88
2022-12-19T05:04:21.136Z,99.59
2022-12-19T05:06:47.861Z,99.73
2022-12-19T05:09:14.295Z,99.82
2022-12-19T05:11:40.802Z,99.64
2022-12-19T05:14:07.264Z,99.92
2022-12-19T05:16:33.791Z,99.77
2022-12-19T05:19:01.092Z,99.80
2022-12-19T05:21:27.951Z,99.85
2022-12-19T05:23:55.018Z,99.74
2022-12-19T05:26:21.516Z,99.81
2022-12-19T05:28:48.770Z,99.99
2022-12-19T05:31:18.547Z,99.93
2022-12-19T05:33:45.539Z,99.79
2022-12-19T05:36:14.511Z,99.80
2022-12-19T05:38:41.360Z,99.87
2022-12-19T05:41:15.703Z,99.84
2022-12-19T05:43:46.599Z,100.00
2022-12-19T05:46:13.191Z,99.98
2022-12-19T05:48:39.747Z,99.88
2022-12-19T05:51:06.535Z,100.00
2022-12-19T05:53:36.384Z,99.94
2022-12-19T05:56:15.168Z,99.72
2022-12-19T05:58:42.381Z,100.00
2022-12-19T06:01:11.884Z,100.00
2022-12-19T06:03:38.661Z,100.00
2022-12-19T06:06:08.082Z,100.00
2022-12-19T06:08:35.206Z,100.00
2022-12-19T06:11:03.539Z,100.00
2022-12-19T06:13:30.788Z,100.00
2022-12-19T06:16:02.584Z,99.95
2022-12-19T06:18:29.686Z,99.75
2022-12-19T06:21:03.982Z,99.99
2022-12-19T06:23:32.555Z,99.86
2022-12-19T06:26:00.132Z,100.00
2022-12-19T06:28:27.932Z,100.00
2022-12-19T06:30:58.935Z,100.00
2022-12-19T06:33:27.328Z,100.00
2022-12-19T06:36:15.942Z,100.00
2022-12-19T06:38:42.508Z,100.00
2022-12-19T06:41:29.071Z,100.00
2022-12-19T06:43:59.823Z,99.95
2022-12-19T06:46:27.013Z,100.00
2022-12-19T06:48:53.524Z,100.00
2022-12-19T06:51:20.357Z,100.00
2022-12-19T06:53:46.942Z,100.00
2022-12-19T06:56:15.136Z,99.73
2022-12-19T06:58:42.079Z,100.00
2022-12-19T07:01:16.659Z,99.93
2022-12-19T07:03:43.262Z,100.00
2022-12-19T07:06:09.708Z,100.00
2022-12-19T07:08:36.149Z,100.00
2022-12-19T07:11:02.666Z,100.00
2022-12-19T07:13:29.157Z,100.00
2022-12-19T07:16:01.430Z,100.00
2022-12-19T07:18:32.132Z,100.00
2022-12-19T07:20:58.629Z,100.00
2022-12-19T07:23:25.160Z,100.00
2022-12-19T07:25:51.730Z,100.00
2022-12-19T07:28:18.434Z,100.00
2022-12-19T07:30:45.168Z,100.00
2022-12-19T07:33:13.557Z,100.00
2022-12-19T07:35:42.076Z,100.00
2022-12-19T07:38:09.077Z,100.00
2022-12-19T07:40:36.070Z,100.00
2022-12-19T07:43:04.275Z,100.00
2022-12-19T07:45:31.251Z,99.74
2022-12-19T07:48:01.931Z,100.00
2022-12-19T07:50:29.504Z,100.00
2022-12-19T07:52:57.629Z,100.00
2022-12-19T07:55:24.434Z,100.00
2022-12-19T07:57:50.998Z,100.00
2022-12-19T08:00:18.668Z,100.00
2022-12-19T08:02:45.869Z,100.00
2022-12-19T08:05:12.759Z,99.92
2022-12-19T08:07:39.807Z,100.00
2022-12-19T08:10:11.296Z,100.00
2022-12-19T08:12:38.186Z,100.00
2022-12-19T08:15:05.779Z,100.00
2022-12-19T08:17:32.354Z,100.00
2022-12-19T08:19:59.536Z,100.00
2022-12-19T08:22:26.167Z,100.00
2022-12-19T08:24:52.713Z,100.00
2022-12-19T08:27:19.203Z,100.00
2022-12-19T08:29:45.786Z,100.00
2022-12-19T08:32:17.081Z,99.91
2022-12-19T08:34:46.940Z,100.00
2022-12-19T08:37:13.576Z,100.00
2022-12-19T08:39:40.053Z,100.00
2022-12-19T08:42:06.555Z,100.00
2022-12-19T08:44:33.000Z,100.00
2022-12-19T08:46:59.953Z,100.00
2022-12-19T08:49:26.437Z,100.00
2022-12-19T08:51:52.911Z,100.00
2022-12-19T08:54:19.400Z,100.00
2022-12-19T08:56:47.048Z,100.00
2022-12-19T08:59:22.892Z,100.00
2022-12-19T09:01:59.038Z,100.00
2022-12-19T09:06:01.676Z,100.00
2022-12-19T09:07:15.687Z,100.00
2022-12-19T09:09:42.882Z,100.00
2022-12-19T09:12:09.415Z,100.00
2022-12-19T09:14:36.071Z,99.98
2022-12-19T09:17:03.829Z,100.00
2022-12-19T09:19:32.316Z,99.81
2022-12-19T09:21:59.239Z,100.00
2022-12-19T09:24:26.352Z,100.00
2022-12-19T09:26:53.116Z,99.66
2022-12-19T09:29:21.845Z,100.00
2022-12-19T09:31:56.299Z,100.00
2022-12-19T09:34:33.194Z,100.00
2022-12-19T09:37:03.801Z,100.00
2022-12-19T09:39:30.525Z,99.84
2022-12-19T09:42:29.681Z,100.00
2022-12-19T09:45:19.784Z,100.00
2022-12-19T09:47:58.844Z,100.00
2022-12-19T09:50:43.850Z,100.00
2022-12-19T09:53:18.057Z,100.00
2022-12-19T09:55:46.627Z,99.75
2022-12-19T09:58:36.640Z,100.00
2022-12-19T10:01:12.001Z,100.00
2022-12-19T10:03:50.359Z,100.00
2022-12-19T10:07:09.383Z,100.00
2022-12-19T10:11:45.744Z,99.90
2022-12-19T10:12:44.383Z,100.00
2022-12-19T10:15:33.669Z,100.00
2022-12-19T10:18:21.660Z,99.75
2022-12-19T10:21:02.870Z,100.00
2022-12-19T10:23:50.489Z,100.00
2022-12-19T10:26:21.173Z,99.98
2022-12-19T10:29:03.127Z,100.00
2022-12-19T10:31:58.459Z,99.72
2022-12-19T10:34:38.563Z,100.00
2022-12-19T10:37:47.245Z,99.94
2022-12-19T10:40:31.090Z,99.52
2022-12-19T10:43:10.852Z,99.71
2022-12-19T10:45:58.646Z,99.64
2022-12-19T10:48:30.260Z,99.86
2022-12-19T10:50:57.404Z,99.65
2022-12-19T10:53:32.011Z,99.60
2022-12-19T10:56:11.860Z,99.67
2022-12-19T10:58:44.281Z,99.24
2022-12-19T11:01:19.554Z,99.31
2022-12-19T11:03:51.365Z,99.31
2022-12-19T11:07:04.511Z,99.21
2022-12-19T11:09:37.303Z,99.10
2022-12-19T11:14:24.219Z,99.34
2022-12-19T11:20:13.857Z,99.57
2022-12-19T11:28:03.702Z,99.52
2022-12-19T11:29:37.220Z,99.15
2022-12-19T11:29:47.125Z,99.20
2022-12-19T11:30:37.135Z,98.96
2022-12-19T11:32:42.679Z,99.25
2022-12-19T11:35:37.125Z,99.06
2022-12-19T11:38:08.291Z,99.07
2022-12-19T11:40:49.596Z,99.07
2022-12-19T11:43:43.617Z,99.36
2022-12-19T11:46:22.235Z,99.46
2022-12-19T11:49:10.849Z,98.82
2022-12-19T11:51:52.494Z,99.38
2022-12-19T11:54:25.285Z,99.40
2022-12-19T11:56:51.998Z,99.76
2022-12-19T11:59:20.123Z,99.15
2022-12-19T12:02:02.444Z,99.09
2022-12-19T12:04:29.003Z,99.33
2022-12-19T12:06:57.592Z,99.09
2022-12-19T12:14:25.808Z,99.01
2022-12-19T12:22:25.302Z,99.43
2022-12-19T12:31:08.293Z,98.93
2022-12-19T12:31:14.028Z,99.18
2022-12-19T12:31:27.600Z,99.39
2022-12-19T12:32:03.191Z,98.83
2022-12-19T12:32:03.986Z,98.87
2022-12-19T12:35:40.929Z,98.66
2022-12-19T12:40:42.501Z,98.60
2022-12-19T12:43:33.375Z,99.17
2022-12-19T12:46:01.904Z,98.72
2022-12-19T12:48:45.591Z,98.37
2022-12-19T12:51:12.916Z,98.31
2022-12-19T12:53:44.275Z,98.31
2022-12-19T12:56:13.581Z,98.04
2022-12-19T12:58:50.941Z,97.85
2022-12-19T13:01:35.415Z,97.60
2022-12-19T13:04:11.168Z,97.80
2022-12-19T13:06:43.214Z,97.67
2022-12-19T13:09:09.679Z,97.26
2022-12-19T13:11:58.593Z,97.26
2022-12-19T13:14:34.023Z,97.35
2022-12-19T13:17:01.430Z,97.55
2022-12-19T13:19:30.614Z,97.18
2022-12-19T13:22:14.694Z,97.18
2022-12-19T13:24:42.664Z,97.11
2022-12-19T13:27:21.369Z,96.79
2022-12-19T13:30:00.315Z,96.92
2022-12-19T13:32:33.220Z,96.71
2022-12-19T13:35:44.601Z,96.31
2022-12-19T13:39:48.863Z,96.58
2022-12-19T13:40:43.606Z,96.77
2022-12-19T13:43:48.049Z,96.48
2022-12-19T13:46:38.848Z,96.56
2022-12-19T13:49:18.800Z,96.31
2022-12-19T13:51:52.209Z,96.54
2022-12-19T13:54:26.803Z,96.38
2022-12-19T13:56:55.004Z,96.46
2022-12-19T13:59:24.912Z,96.46
2022-12-19T14:01:53.515Z,96.58
2022-12-19T14:04:30.113Z,95.81
2022-12-19T14:07:20.563Z,96.31
2022-12-19T14:11:26.292Z,96.49
2022-12-19T14:13:45.453Z,96.33
2022-12-19T14:15:52.007Z,96.54
2022-12-19T14:18:42.448Z,96.33
2022-12-19T14:22:05.735Z,95.93
2022-12-19T14:24:19.950Z,96.11
2022-12-19T14:28:26.612Z,95.62
2022-12-19T14:30:28.325Z,95.56
2022-12-19T14:33:53.579Z,95.45
2022-12-19T14:36:05.798Z,95.70
2022-12-19T14:39:24.645Z,95.95
2022-12-19T14:41:58.811Z,96.16
2022-12-19T14:52:25.644Z,95.73
2022-12-19T14:53:08.677Z,95.65
2022-12-19T14:54:03.319Z,95.33
2022-12-19T14:54:25.524Z,95.97
2022-12-19T14:59:03.299Z,94.84
2022-12-19T15:01:33.707Z,94.34
2022-12-19T15:04:53.369Z,94.63
2022-12-19T15:07:07.233Z,94.75
2022-12-19T15:11:03.851Z,95.21
2022-12-19T15:14:50.494Z,95.23
2022-12-19T15:16:07.318Z,94.30
2022-12-19T15:18:34.025Z,94.51
2022-12-19T15:21:06.458Z,94.85
2022-12-19T15:23:32.952Z,95.06
2022-12-19T15:26:07.430Z,95.19
2022-12-19T15:28:40.212Z,94.64
2022-12-19T15:31:17.205Z,95.47
2022-12-19T15:34:06.772Z,95.64
2022-12-19T15:36:30.355Z,95.81
2022-12-19T15:38:56.899Z,94.72
2022-12-19T15:41:25.079Z,94.84
2022-12-19T15:44:03.716Z,95.20
2022-12-19T15:46:32.304Z,94.88
2022-12-19T15:48:58.836Z,95.05
2022-12-19T15:51:25.324Z,95.28
2022-12-19T15:53:51.797Z,95.52
2022-12-19T15:56:28.494Z,95.89
2022-12-19T15:58:57.140Z,95.98
2022-12-19T16:01:24.355Z,96.13
2022-12-19T16:03:51.549Z,96.49
2022-12-19T16:06:18.392Z,96.32
2022-12-19T16:08:44.879Z,96.53
2022-12-19T16:11:24.739Z,96.53
2022-12-19T16:13:56.515Z,96.54
2022-12-19T16:16:23.280Z,95.90
2022-12-19T16:18:49.789Z,96.23
2022-12-19T16:21:31.566Z,96.24
2022-12-19T16:24:00.381Z,96.68
2022-12-19T16:26:35.757Z,95.80
2022-12-19T16:29:02.523Z,96.23
2022-12-19T16:31:29.300Z,96.71
2022-12-19T16:33:56.139Z,96.30
2022-12-19T16:36:22.701Z,95.89
2022-12-19T16:38:49.266Z,96.24
2022-12-19T16:41:24.205Z,95.63
2022-12-19T16:43:51.437Z,96.06
2022-12-19T16:46:21.605Z,95.46
2022-12-19T16:48:49.018Z,95.64
2022-12-19T16:51:27.484Z,95.52
2022-12-19T16:54:00.159Z,94.95
2022-12-19T16:56:40.760Z,95.20
2022-12-19T16:59:23.211Z,95.08
2022-12-19T17:01:51.057Z,94.68
2022-12-19T17:04:23.461Z,94.76
2022-12-19T17:06:52.237Z,94.27
2022-12-19T17:09:21.399Z,94.57
2022-12-19T17:11:51.712Z,94.71
2022-12-19T17:14:21.838Z,94.24
2022-12-19T17:16:48.919Z,94.08
2022-12-19T17:19:21.149Z,92.80
2022-12-19T17:21:48.770Z,93.33
2022-12-19T17:24:15.735Z,93.67
2022-12-19T17:26:43.492Z,93.69
2022-12-19T17:29:10.973Z,93.71
2022-12-19T17:31:39.697Z,93.61
2022-12-19T17:34:17.432Z,93.50
2022-12-19T17:36:44.821Z,93.59
2022-12-19T17:39:23.109Z,93.43
2022-12-19T17:41:50.579Z,93.49
2022-12-19T17:44:17.832Z,93.08
2022-12-19T17:46:45.955Z,93.52
2022-12-19T17:49:23.066Z,93.35
2022-12-19T17:51:52.320Z,93.40
2022-12-19T17:54:20.491Z,93.10
2022-12-19T17:56:47.549Z,92.93
2022-12-19T17:59:14.173Z,93.60
2022-12-19T18:01:41.886Z,92.59
2022-12-19T18:04:18.130Z,92.75
2022-12-19T18:06:45.287Z,92.71
2022-12-19T18:09:22.589Z,93.08
2022-12-19T18:11:50.122Z,92.55
2022-12-19T18:14:17.503Z,92.99
2022-12-19T18:16:45.772Z,92.78
2022-12-19T18:19:19.980Z,93.82
2022-12-19T18:21:47.231Z,93.19
2022-12-19T18:24:16.412Z,93.46
2022-12-19T18:26:44.440Z,93.09
2022-12-19T18:29:11.289Z,93.09
2022-12-19T18:31:39.945Z,93.16
2022-12-19T18:34:18.974Z,92.65
2022-12-19T18:36:45.465Z,92.10
2022-12-19T18:39:26.055Z,92.82
2022-12-19T18:41:53.843Z,91.90
2022-12-19T18:44:22.594Z,92.59
2022-12-19T18:46:51.390Z,92.92
2022-12-19T18:49:18.295Z,92.15
2022-12-19T18:51:45.127Z,93.01
2022-12-19T18:54:18.992Z,92.94
2022-12-19T18:56:46.079Z,92.86
2022-12-19T18:59:12.900Z,92.63
2022-12-19T19:01:43.461Z,92.91
2022-12-19T19:04:13.031Z,91.91
2022-12-19T19:06:50.337Z,92.29
2022-12-19T19:09:19.087Z,91.52
2022-12-19T19:11:59.535Z,92.07
2022-12-19T19:14:26.071Z,92.35
2022-12-19T19:16:53.160Z,92.26
2022-12-19T19:19:19.920Z,91.85
2022-12-19T19:21:46.553Z,92.51
2022-12-19T19:24:16.719Z,92.29
2022-12-19T19:26:43.232Z,91.85
2022-12-19T19:29:09.876Z,92.04
2022-12-19T19:31:40.660Z,91.76
2022-12-19T19:34:14.451Z,91.71
2022-12-19T19:36:44.794Z,91.79
2022-12-19T19:39:11.305Z,91.95
2022-12-19T19:41:37.791Z,91.25
2022-12-19T19:44:04.475Z,91.52
2022-12-19T19:46:32.278Z,91.15
2022-12-19T19:48:59.067Z,91.31
2022-12-19T19:51:28.571Z,91.03
2022-12-19T19:53:55.496Z,90.58
2022-12-19T19:56:21.952Z,91.40
2022-12-19T19:58:48.654Z,91.48
2022-12-19T20:01:15.435Z,90.99
2022-12-19T20:03:43.210Z,90.97
2022-12-19T20:06:10.469Z,90.83
2022-12-19T20:08:40.051Z,91.08
2022-12-19T20:11:08.872Z,90.72
2022-12-19T20:13:35.659Z,91.05
2022-12-19T20:16:04.900Z,91.15
2022-12-19T20:18:31.592Z,90.99
2022-12-19T20:20:58.229Z,91.37
2022-12-19T20:23:25.161Z,91.53
2022-12-19T20:25:52.097Z,92.22
2022-12-19T20:28:18.738Z,91.65
2022-12-19T20:30:45.853Z,91.63
2022-12-19T20:33:12.347Z,91.46
2022-12-19T20:35:38.884Z,91.62
2022-12-19T20:38:05.341Z,91.52
2022-12-19T20:40:31.844Z,91.34
2022-12-19T20:42:58.434Z,91.50
2022-12-19T20:45:24.937Z,91.98
2022-12-19T20:47:51.438Z,92.47
2022-12-19T20:50:17.989Z,92.66
2022-12-19T20:52:44.428Z,92.64
2022-12-19T20:55:11.025Z,92.42
2022-12-19T20:57:37.548Z,92.71
2022-12-19T21:00:06.393Z,92.64
2022-12-19T21:02:52.501Z,92.55
2022-12-19T21:05:20.458Z,92.56
2022-12-19T21:07:47.055Z,92.78
2022-12-19T21:10:13.906Z,92.65
2022-12-19T21:12:47.193Z,93.04
2022-12-19T21:15:14.323Z,93.24
2022-12-19T21:17:40.798Z,92.95
2022-12-19T21:20:07.819Z,93.25
2022-12-19T21:22:34.425Z,93.30
2022-12-19T21:25:00.961Z,92.96
2022-12-19T21:27:27.458Z,92.82
2022-12-19T21:29:53.899Z,92.43
2022-12-19T21:32:20.388Z,92.19
2022-12-19T21:34:46.930Z,91.78
2022-12-19T21:37:13.376Z,92.03
2022-12-19T21:39:39.942Z,92.30
2022-12-19T21:42:06.370Z,91.74
2022-12-19T21:44:32.812Z,91.71
2022-12-19T21:46:59.362Z,92.23
2022-12-19T21:49:25.916Z,91.82
2022-12-19T21:51:52.395Z,91.79
2022-12-19T21:54:18.957Z,91.23
2022-12-19T21:56:46.063Z,91.43
2022-12-19T21:59:15.118Z,91.20
2022-12-19T22:01:42.477Z,92.11
2022-12-19T22:04:17.936Z,91.19
2022-12-19T22:06:44.527Z,90.55
2022-12-19T22:09:13.931Z,91.17
2022-12-19T22:11:40.792Z,91.38
2022-12-19T22:14:08.116Z,90.93
2022-12-19T22:16:35.642Z,90.51
2022-12-19T22:19:03.149Z,90.34
2022-12-19T22:21:29.884Z,90.51
2022-12-19T22:24:01.282Z,90.50
2022-12-19T22:26:29.605Z,90.79
2022-12-19T22:28:57.556Z,90.00
2022-12-19T22:31:27.132Z,90.10
2022-12-19T22:33:56.166Z,90.38
2022-12-19T22:36:28.035Z,90.76
2022-12-19T22:38:55.893Z,90.67
2022-12-19T22:41:22.369Z,89.69
2022-12-19T22:43:49.206Z,89.83
2022-12-19T22:46:19.848Z,90.80
2022-12-19T22:48:48.678Z,90.30
2022-12-19T22:51:16.701Z,90.31
2022-12-19T22:53:46.355Z,90.37
2022-12-19T22:56:17.685Z,90.33
2022-12-19T22:58:47.256Z,90.62
2022-12-19T23:01:32.388Z,90.36
2022-12-19T23:04:01.331Z,89.79
2022-12-19T23:06:29.052Z,90.82
2022-12-19T23:08:55.962Z,90.30
2022-12-19T23:11:27.818Z,90.45
2022-12-19T23:13:54.606Z,90.31
2022-12-19T23:16:21.100Z,90.39
2022-12-19T23:18:48.034Z,89.81
2022-12-19T23:21:19.812Z,90.27
2022-12-19T23:23:49.444Z,90.53
2022-12-19T23:26:19.201Z,90.12
2022-12-19T23:28:51.753Z,90.07
2022-12-19T23:31:19.000Z,90.39
2022-12-19T23:33:45.523Z,89.77
2022-12-19T23:36:11.972Z,90.16
2022-12-19T23:38:38.967Z,90.03
2022-12-19T23:41:08.109Z,90.30
2022-12-19T23:43:36.332Z,89.05
2022-12-19T23:46:16.865Z,88.97
2022-12-19T23:48:43.503Z,89.41
2022-12-19T23:51:16.171Z,89.34
2022-12-19T23:53:43.154Z,89.00
2022-12-19T23:56:15.537Z,88.29
2022-12-19T23:58:43.040Z,88.89
